Time,TemperatureF,DewpointF,PressureIn,WindDirection,WindDirectionDegrees,WindSpeedMPH,WindSpeedGustMPH,Humidity,HourlyPrecipIn,Conditions,Clouds,dailyrainin,SolarRadiationWatts/m^2,SoftwareType,DateUTC
2013-11-01 00:02:00,23.0,19.0,-100.00,NNE,29,4.0,16.0,84,0.00,,,-99.99,0.000000,,2013-11-01 06:02:00,
2013-11-01 00:42:00,23.0,19.0,-100.00,East,84,2.0,6.0,84,0.00,,,-99.99,0.000000,,2013-11-01 06:42:00,
2013-11-01 00:52:00,23.0,19.0,-100.00,East,84,2.0,6.0,84,0.00,,,-99.99,0.000000,,2013-11-01 06:52:00,
2013-11-01 01:02:00,23.0,19.0,-100.00,East,84,2.0,6.0,84,0.00,,,-99.99,0.000000,,2013-11-01 07:02:00,
2013-11-01 01:42:00,25.0,20.0,-100.00,NW,308,4.0,11.0,81,0.00,,,-99.99,0.000000,,2013-11-01 07:42:00,
2013-11-01 01:52:00,25.0,20.0,-100.00,NW,308,4.0,11.0,81,0.00,,,-99.99,0.000000,,2013-11-01 07:52:00,
2013-11-01 02:02:00,25.0,20.0,-100.00,NW,308,4.0,11.0,81,0.00,,,-99.99,0.000000,,2013-11-01 08:02:00,
2013-11-01 02:42:00,26.0,21.0,-100.00,North,351,7.0,16.0,82,0.00,,,-99.99,0.000000,,2013-11-01 08:42:00,
2013-11-01 02:52:00,26.0,21.0,-100.00,North,351,7.0,16.0,82,0.00,,,-99.99,0.000000,,2013-11-01 08:52:00,
2013-11-01 03:02:00,26.0,21.0,-100.00,North,351,7.0,16.0,82,0.00,,,-99.99,0.000000,,2013-11-01 09:02:00,
2013-11-01 03:43:00,27.0,18.0,-100.00,North,349,8.0,19.0,67,0.00,,,-99.99,0.000000,,2013-11-01 09:43:00,
2013-11-01 03:53:00,27.0,18.0,-100.00,North,349,8.0,19.0,67,0.00,,,-99.99,0.000000,,2013-11-01 09:53:00,
2013-11-01 04:03:00,27.0,18.0,-100.00,North,349,8.0,19.0,67,0.00,,,-99.99,0.000000,,2013-11-01 10:03:00,
2013-11-01 04:43:00,26.0,21.0,-100.00,North,354,7.0,19.0,80,0.00,,,-99.99,0.000000,,2013-11-01 10:43:00,
2013-11-01 04:53:00,26.0,21.0,-100.00,North,354,7.0,19.0,80,0.00,,,-99.99,0.000000,,2013-11-01 10:53:00,
2013-11-01 05:02:00,26.0,21.0,-100.00,North,354,7.0,19.0,80,0.00,,,-99.99,0.000000,,2013-11-01 11:02:00,
2013-11-01 05:42:00,27.0,18.0,-100.00,North,353,9.0,22.0,68,0.00,,,-99.99,0.000000,,2013-11-01 11:42:00,
2013-11-01 05:52:00,27.0,18.0,-100.00,North,353,9.0,22.0,68,0.00,,,-99.99,0.000000,,2013-11-01 11:52:00,
2013-11-01 06:02:00,27.0,18.0,-100.00,North,353,9.0,22.0,68,0.00,,,-99.99,0.000000,,2013-11-01 12:02:00,
2013-11-01 06:42:00,27.0,16.0,-100.00,NNW,347,11.0,24.0,63,0.00,,,-99.99,0.000000,,2013-11-01 12:42:00,
2013-11-01 06:52:00,27.0,16.0,-100.00,NNW,347,11.0,24.0,63,0.00,,,-99.99,0.000000,,2013-11-01 12:52:00,
2013-11-01 07:01:00,27.0,16.0,-100.00,NNW,347,11.0,24.0,63,0.00,,,-99.99,0.000000,,2013-11-01 13:01:00,
2013-11-01 07:42:00,26.0,15.0,-100.00,NNW,338,9.0,30.0,62,0.00,,,-99.99,0.000000,,2013-11-01 13:42:00,
2013-11-01 07:52:00,26.0,15.0,-100.00,NNW,338,9.0,30.0,62,0.00,,,-99.99,0.000000,,2013-11-01 13:52:00,
2013-11-01 08:02:00,26.0,15.0,-100.00,NNW,338,9.0,30.0,62,0.00,,,-99.99,0.000000,,2013-11-01 14:02:00,
2013-11-01 08:42:00,25.0,17.0,-100.00,North,352,8.0,21.0,70,0.00,,,-99.99,10.000000,,2013-11-01 14:42:00,
2013-11-01 08:52:00,25.0,17.0,-100.00,North,352,8.0,21.0,70,0.00,,,-99.99,10.000000,,2013-11-01 14:52:00,
2013-11-01 09:02:00,25.0,17.0,-100.00,North,352,8.0,21.0,70,0.00,,,-99.99,10.000000,,2013-11-01 15:02:00,
2013-11-01 09:44:00,31.0,15.0,-100.00,NNW,339,6.0,18.0,50,0.00,,,-99.99,176.000000,,2013-11-01 15:44:00,
2013-11-01 09:54:00,31.0,15.0,-100.00,NNW,339,6.0,18.0,50,0.00,,,-99.99,176.000000,,2013-11-01 15:54:00,
2013-11-01 10:04:00,31.0,15.0,-100.00,NNW,339,6.0,18.0,50,0.00,,,-99.99,176.000000,,2013-11-01 16:04:00,
2013-11-01 10:43:00,32.0,15.0,-100.00,NNW,338,9.0,23.0,49,0.00,,,0.00,440.000000,,2013-11-01 16:43:00,
2013-11-01 10:53:00,32.0,15.0,-100.00,NNW,338,9.0,23.0,49,0.00,,,0.00,440.000000,,2013-11-01 16:53:00,
2013-11-01 11:02:00,32.0,15.0,-100.00,NNW,338,9.0,23.0,49,0.00,,,0.00,440.000000,,2013-11-01 17:02:00,
2013-11-01 11:43:00,32.0,12.0,-100.00,NW,324,11.0,27.0,43,0.00,,,0.00,539.000000,,2013-11-01 17:43:00,
2013-11-01 11:52:00,32.0,12.0,-100.00,NW,324,11.0,27.0,43,0.00,,,0.00,539.000000,,2013-11-01 17:52:00,
2013-11-01 12:01:00,32.0,12.0,-100.00,NW,324,11.0,27.0,43,0.00,,,0.00,539.000000,,2013-11-01 18:01:00,
2013-11-01 12:42:00,33.0,13.0,-100.00,North,351,9.0,28.0,44,0.00,,,0.00,584.000000,,2013-11-01 18:42:00,
2013-11-01 12:52:00,33.0,13.0,-100.00,North,351,9.0,28.0,44,0.00,,,0.00,584.000000,,2013-11-01 18:52:00,
2013-11-01 13:02:00,33.0,13.0,-100.00,North,351,9.0,28.0,44,0.00,,,0.00,584.000000,,2013-11-01 19:02:00,
2013-11-01 13:42:00,34.0,13.0,-100.00,North,355,10.0,26.0,42,0.00,,,0.00,730.000000,,2013-11-01 19:42:00,
2013-11-01 13:52:00,34.0,13.0,-100.00,North,355,10.0,26.0,42,0.00,,,0.00,730.000000,,2013-11-01 19:52:00,
2013-11-01 14:02:00,34.0,13.0,-100.00,North,355,10.0,26.0,42,0.00,,,0.00,730.000000,,2013-11-01 20:02:00,
2013-11-01 14:42:00,35.0,14.0,-100.00,North,359,8.0,18.0,42,0.00,,,0.00,763.000000,,2013-11-01 20:42:00,
2013-11-01 14:52:00,35.0,14.0,-100.00,North,359,8.0,18.0,42,0.00,,,0.00,763.000000,,2013-11-01 20:52:00,
2013-11-01 15:01:00,35.0,14.0,-100.00,North,359,8.0,18.0,42,0.00,,,0.00,763.000000,,2013-11-01 21:01:00,
2013-11-01 15:44:00,35.0,14.0,-100.00,NNW,341,9.0,23.0,41,0.00,,,0.00,604.000000,,2013-11-01 21:44:00,
2013-11-01 15:55:00,35.0,14.0,-100.00,NNW,341,9.0,23.0,41,0.00,,,0.00,604.000000,,2013-11-01 21:55:00,
2013-11-01 16:03:00,35.0,14.0,-100.00,NNW,341,9.0,23.0,41,0.00,,,0.00,604.000000,,2013-11-01 22:03:00,
2013-11-01 16:42:00,34.0,14.0,-100.00,North,1,9.0,22.0,43,0.00,,,0.00,464.000000,,2013-11-01 22:42:00,
2013-11-01 16:53:00,34.0,14.0,-100.00,North,1,9.0,22.0,43,0.00,,,0.00,464.000000,,2013-11-01 22:53:00,
2013-11-01 17:02:00,34.0,14.0,-100.00,North,1,9.0,22.0,43,0.00,,,0.00,464.000000,,2013-11-01 23:02:00,
2013-11-01 17:42:00,31.0,14.0,-100.00,North,4,10.0,21.0,49,0.00,,,0.00,291.000000,,2013-11-01 23:42:00,
2013-11-01 17:53:00,31.0,14.0,-100.00,North,4,10.0,21.0,49,0.00,,,0.00,291.000000,,2013-11-01 23:53:00,
2013-11-01 18:02:00,31.0,14.0,-100.00,North,4,10.0,21.0,49,0.00,,,0.00,291.000000,,2013-11-02 00:02:00,
2013-11-01 18:42:00,28.0,14.0,-100.00,NNE,14,8.0,21.0,55,0.00,,,0.00,20.000000,,2013-11-02 00:42:00,
2013-11-01 18:52:00,28.0,14.0,-100.00,NNE,14,8.0,21.0,55,0.00,,,0.00,20.000000,,2013-11-02 00:52:00,
2013-11-01 19:02:00,28.0,14.0,-100.00,NNE,14,8.0,21.0,55,0.00,,,0.00,20.000000,,2013-11-02 01:02:00,
2013-11-01 19:42:00,27.0,14.0,-100.00,NW,322,3.0,19.0,58,0.00,,,0.00,1.000000,,2013-11-02 01:42:00,
2013-11-01 19:52:00,27.0,14.0,-100.00,NW,322,3.0,19.0,58,0.00,,,0.00,1.000000,,2013-11-02 01:52:00,
2013-11-01 20:02:00,27.0,14.0,-100.00,NW,322,3.0,19.0,58,0.00,,,0.00,1.000000,,2013-11-02 02:02:00,
2013-11-01 20:42:00,25.0,15.0,-100.00,North,8,3.0,10.0,64,0.00,,,0.00,0.000000,,2013-11-02 02:42:00,
2013-11-01 20:53:00,25.0,15.0,-100.00,North,8,3.0,10.0,64,0.00,,,0.00,0.000000,,2013-11-02 02:53:00,
2013-11-01 21:02:00,25.0,15.0,-100.00,North,8,3.0,10.0,64,0.00,,,0.00,0.000000,,2013-11-02 03:02:00,
2013-11-01 21:44:00,22.0,14.0,-100.00,West,274,3.0,8.0,72,0.00,,,0.00,0.000000,,2013-11-02 03:44:00,
2013-11-01 21:54:00,22.0,14.0,-100.00,West,274,3.0,8.0,72,0.00,,,0.00,0.000000,,2013-11-02 03:54:00,
2013-11-01 22:04:00,22.0,14.0,-100.00,West,274,3.0,8.0,72,0.00,,,0.00,0.000000,,2013-11-02 04:04:00,
2013-11-01 22:44:00,22.0,14.0,-100.00,NW,324,4.0,9.0,72,0.00,,,0.00,0.000000,,2013-11-02 04:44:00,
2013-11-01 22:54:00,22.0,14.0,-100.00,NW,324,4.0,9.0,72,0.00,,,0.00,0.000000,,2013-11-02 04:54:00,
2013-11-01 23:04:00,22.0,14.0,-100.00,NW,324,4.0,9.0,72,0.00,,,0.00,0.000000,,2013-11-02 05:04:00,
2013-11-01 23:42:00,20.0,14.0,-100.00,NNW,343,5.0,9.0,76,0.00,,,0.00,0.000000,,2013-11-02 05:42:00,
2013-11-01 23:52:00,20.0,14.0,-100.00,NNW,343,5.0,9.0,76,0.00,,,0.00,0.000000,,2013-11-02 05:52:00,